LGMT/MJT METAR and TAF weather

Enter ICAO airport designator
Station Type Date Time Source
LGMT METAR 2020/01/18 12:50 UTC NOAA

LGMT 181250Z 01011KT 330V050 9999 SCT025 12/04 Q1021


Station Type Date Time Source
LGMT Decoded METAR 2020/01/18 12:50 UTC NOAA

Mytilini Airport , Greece (LGMT) 39-04N 026-36E 5M
Jan 18, 2020 - 07:50 AM EST / 2020.01.18 1250 UTC
Wind: from the N (010 degrees) at 13 MPH (11 KT) (direction variable):0
Visibility: greater than 7 mile(s):0
Sky conditions: partly cloudy
Temperature: 53 F (12 C)
Dew Point: 39 F (4 C)
Relative Humidity: 57%
Pressure (altimeter): 30.15 in. Hg (1021 hPa)
ob: LGMT 181250Z 01011KT 330V050 9999 SCT025 12/04 Q1021
cycle: 13

Station Type Date Time Source
LGMT TAF 2012/09/21 03:06 UTC NOAA

TAF LGMT 210200Z 2103/2115 VRB05KT 9999 SCT020
BECMG 2103/2105 30015KT PROB30
TEMPO 2103/2106 7000 RA SCT018 BKN030
BECMG 2107/2109 29012KT

Example: see airport list